Time;durP1;ratioP1;P1;durP2;ratioP2;P2;SDS_P1;SDS_P2;PMS_P1;PMS_P2;Temp;Humidity;BMP_temperature;BMP_pressure;BME280_temperature;BME280_humidity;BME280_pressure;Samples;Min_cycle;Max_cycle;Signal;HPM_P1;HPM_P2
2021/08/28 00:00:37;;;;;;;1.70;0.57;;;12.80;99.90;;;;;;4970226;28;20039;-88
2021/08/28 00:03:02;;;;;;;3.08;0.70;;;12.90;99.90;;;;;;4986286;28;20031;-88
2021/08/28 00:05:31;;;;;;;2.85;0.80;;;12.90;99.90;;;;;;4970316;28;20042;-88
2021/08/28 00:07:57;;;;;;;3.97;0.70;;;13.00;99.90;;;;;;4970079;28;20070;-87
2021/08/28 00:10:23;;;;;;;3.15;0.50;;;13.00;99.90;;;;;;4969941;28;20054;-88
2021/08/28 00:12:49;;;;;;;5.25;0.50;;;13.00;99.90;;;;;;4969939;28;20045;-88
2021/08/28 00:15:15;;;;;;;4.63;0.70;;;13.10;99.90;;;;;;4969912;28;20058;-88
2021/08/28 00:17:41;;;;;;;2.25;0.50;;;13.10;99.90;;;;;;4966770;28;20412;-88
2021/08/28 00:20:09;;;;;;;4.95;0.88;;;13.00;99.90;;;;;;4966714;29;20062;-87
2021/08/28 00:22:36;;;;;;;3.65;0.68;;;13.10;99.90;;;;;;4966402;29;20038;-87
2021/08/28 00:25:03;;;;;;;4.03;0.90;;;13.20;99.90;;;;;;4966502;28;20396;-88
2021/08/28 00:27:29;;;;;;;3.35;1.05;;;13.30;99.90;;;;;;4950575;29;20083;-88
2021/08/28 00:29:54;;;;;;;2.42;0.60;;;13.30;99.90;;;;;;4950847;29;20038;-88
2021/08/28 00:32:20;;;;;;;3.47;0.82;;;13.30;99.90;;;;;;4967761;29;20028;-88
2021/08/28 00:34:45;;;;;;;3.42;0.57;;;13.40;99.90;;;;;;4966720;29;20031;-88
2021/08/28 00:37:11;;;;;;;6.72;1.02;;;13.40;99.90;;;;;;4966204;29;20126;-88
2021/08/28 00:39:37;;;;;;;5.60;1.10;;;13.50;99.90;;;;;;4966749;28;20090;-88
2021/08/28 00:42:03;;;;;;;3.05;0.60;;;13.50;99.90;;;;;;4966738;29;20041;-88
2021/08/28 00:44:28;;;;;;;6.63;1.33;;;13.50;99.90;;;;;;4966715;29;20027;-89
2021/08/28 00:46:55;;;;;;;5.72;1.38;;;13.50;99.90;;;;;;4966626;28;20031;-88
2021/08/28 00:49:21;;;;;;;5.78;1.27;;;13.50;99.90;;;;;;4964957;28;20094;-88
2021/08/28 00:51:47;;;;;;;9.07;1.67;;;13.50;99.90;;;;;;4969526;28;20070;-89
2021/08/28 00:54:12;;;;;;;5.55;1.48;;;13.50;99.90;;;;;;4969848;28;20031;-88
2021/08/28 00:56:40;;;;;;;8.68;1.63;;;13.50;99.90;;;;;;4969613;28;20031;-88
2021/08/28 00:59:06;;;;;;;10.02;1.58;;;13.50;99.90;;;;;;4973211;28;20035;-89
2021/08/28 01:01:36;;;;;;;9.95;2.10;;;13.50;99.90;;;;;;4973304;28;20035;-90
2021/08/28 01:04:04;;;;;;;9.05;1.85;;;13.50;99.90;;;;;;4973532;28;20098;-88
2021/08/28 01:06:42;;;;;;;7.13;1.77;;;13.50;99.90;;;;;;4973582;28;20026;-88
2021/08/28 01:09:25;;;;;;;7.32;2.03;;;13.50;99.90;;;;;;4989715;28;20035;-88
2021/08/28 01:12:12;;;;;;;6.20;1.63;;;13.50;99.90;;;;;;4989302;28;20031;-88
2021/08/28 01:14:55;;;;;;;5.80;1.80;;;13.40;99.90;;;;;;4989574;28;20037;-89
2021/08/28 01:17:22;;;;;;;6.53;1.67;;;13.40;99.90;;;;;;4969698;28;20047;-89
2021/08/28 01:20:00;;;;;;;7.85;2.15;;;13.40;99.90;;;;;;4970004;28;20031;-88
2021/08/28 01:22:46;;;;;;;7.68;2.30;;;13.40;99.90;;;;;;4969853;29;20070;-88
2021/08/28 01:25:30;;;;;;;4.65;1.38;;;13.40;99.90;;;;;;4970083;29;20084;-88
2021/08/28 01:28:17;;;;;;;4.82;1.98;;;13.40;99.90;;;;;;4972357;28;20035;-89
2021/08/28 01:30:44;;;;;;;6.88;1.73;;;13.30;99.90;;;;;;4986023;28;20062;-89
2021/08/28 01:33:12;;;;;;;9.13;2.03;;;13.40;99.90;;;;;;4969478;29;20678;-88
2021/08/28 01:35:42;;;;;;;6.10;1.38;;;13.40;99.90;;;;;;4969703;28;20055;-89
2021/08/28 01:38:10;;;;;;;5.57;1.70;;;13.40;99.90;;;;;;4969361;29;20051;-88
2021/08/28 01:40:49;;;;;;;4.32;1.17;;;13.50;99.90;;;;;;4969948;29;20052;-88
2021/08/28 01:43:16;;;;;;;9.85;1.52;;;13.50;99.90;;;;;;4969542;29;20031;-88
2021/08/28 01:45:42;;;;;;;3.83;1.08;;;13.50;99.90;;;;;;4970879;28;20095;-90
2021/08/28 01:48:13;;;;;;;5.55;1.42;;;13.60;99.90;;;;;;4979687;23;20105;-88
2021/08/28 01:50:41;;;;;;;8.60;1.13;;;13.60;99.90;;;;;;4957205;28;20026;-88
2021/08/28 01:53:19;;;;;;;5.43;1.20;;;13.70;99.90;;;;;;4972962;28;20101;-88
2021/08/28 01:55:45;;;;;;;5.95;1.48;;;13.70;99.90;;;;;;4972784;28;20037;-88
2021/08/28 01:58:12;;;;;;;4.10;0.85;;;13.70;99.90;;;;;;4956953;28;20554;-88
2021/08/28 02:00:46;;;;;;;6.45;1.08;;;13.70;99.90;;;;;;4974293;28;20118;-87
2021/08/28 02:03:23;;;;;;;2.40;0.93;;;13.70;99.90;;;;;;4958119;28;20035;-88
2021/08/28 02:05:53;;;;;;;3.15;1.08;;;13.70;99.90;;;;;;4972751;28;20034;-88
2021/08/28 02:08:31;;;;;;;2.88;1.15;;;13.70;99.90;;;;;;4973119;28;20030;-88
2021/08/28 02:11:00;;;;;;;7.03;1.58;;;13.70;99.90;;;;;;4972906;28;20038;-88
2021/08/28 02:13:54;;;;;;;8.20;1.25;;;13.70;99.90;;;;;;4956579;28;20034;-88
2021/08/28 02:16:25;;;;;;;5.15;0.95;;;13.70;99.90;;;;;;4956530;28;20038;-88
2021/08/28 02:19:07;;;;;;;6.95;1.45;;;13.70;99.90;;;;;;4956437;28;20118;-88
2021/08/28 02:22:01;;;;;;;7.63;1.75;;;13.80;99.90;;;;;;4972748;28;20038;-88
2021/08/28 02:24:47;;;;;;;4.63;1.55;;;13.80;99.90;;;;;;4958405;28;20037;-88
2021/08/28 02:27:23;;;;;;;4.18;1.58;;;13.80;99.90;;;;;;4956233;28;20179;-88
2021/08/28 02:30:07;;;;;;;4.45;1.02;;;13.80;99.90;;;;;;4956057;28;20599;-88
2021/08/28 02:32:52;;;;;;;8.00;1.95;;;13.90;99.90;;;;;;4973892;28;20035;-88
2021/08/28 02:35:19;;;;;;;6.88;1.83;;;14.00;99.90;;;;;;4956072;28;20042;-88
2021/08/28 02:37:47;;;;;;;5.53;1.23;;;14.00;99.90;;;;;;4972066;28;20070;-89
2021/08/28 02:40:16;;;;;;;5.15;1.30;;;14.00;99.90;;;;;;4971714;28;20113;-88
2021/08/28 02:42:44;;;;;;;5.05;1.38;;;14.00;99.90;;;;;;4956210;28;20054;-88
2021/08/28 02:45:17;;;;;;;5.95;1.25;;;14.00;99.90;;;;;;4955551;28;20127;-89
2021/08/28 02:47:51;;;;;;;4.13;1.80;;;14.00;99.90;;;;;;4956425;28;20431;-89
2021/08/28 02:50:19;;;;;;;3.75;1.38;;;14.00;99.90;;;;;;4971528;28;20117;-89
2021/08/28 02:52:50;;;;;;;6.60;1.30;;;14.10;99.90;;;;;;4972235;28;20054;-89
2021/08/28 02:55:18;;;;;;;6.55;1.42;;;14.10;99.90;;;;;;4955534;28;20094;-88
2021/08/28 02:57:48;;;;;;;6.72;1.25;;;14.10;99.90;;;;;;4971423;28;20038;-88
2021/08/28 03:00:16;;;;;;;4.53;1.10;;;14.10;99.90;;;;;;4955398;28;20054;-88
2021/08/28 03:02:43;;;;;;;3.45;1.05;;;14.10;99.90;;;;;;4955394;28;20035;-88
2021/08/28 03:05:11;;;;;;;5.75;1.52;;;14.10;99.90;;;;;;4955438;28;20031;-88
2021/08/28 03:07:38;;;;;;;3.95;1.05;;;14.20;99.90;;;;;;4955338;28;20035;-88
2021/08/28 03:10:08;;;;;;;4.43;1.33;;;14.20;99.90;;;;;;4955221;28;20070;-88
2021/08/28 03:12:34;;;;;;;6.50;2.13;;;14.30;99.90;;;;;;4971293;28;20088;-88
2021/08/28 03:15:02;;;;;;;10.40;2.33;;;14.40;99.90;;;;;;4955237;28;20023;-88
2021/08/28 03:17:28;;;;;;;8.18;2.20;;;14.50;99.90;;;;;;4951679;29;20035;-88
2021/08/28 03:19:57;;;;;;;8.35;2.33;;;14.50;99.90;;;;;;4951233;29;20042;-89
2021/08/28 03:22:24;;;;;;;12.55;2.22;;;14.60;99.90;;;;;;4935994;29;20043;-87
2021/08/28 03:24:54;;;;;;;5.65;2.25;;;14.60;99.90;;;;;;4952352;29;20046;-89
2021/08/28 03:27:29;;;;;;;10.13;2.15;;;14.70;99.90;;;;;;4953456;29;20456;-89
2021/08/28 03:29:57;;;;;;;9.50;2.58;;;14.70;99.90;;;;;;4952926;29;20051;-89
2021/08/28 03:32:23;;;;;;;6.85;2.47;;;14.70;99.90;;;;;;4967637;29;20023;-89
2021/08/28 03:34:51;;;;;;;6.38;1.77;;;14.70;99.90;;;;;;4951617;29;20042;-89
2021/08/28 03:37:18;;;;;;;8.07;2.58;;;14.70;99.90;;;;;;4951606;29;20073;-88
2021/08/28 03:39:44;;;;;;;6.43;2.35;;;14.80;99.90;;;;;;4951406;29;20031;-88
2021/08/28 03:42:11;;;;;;;6.28;2.30;;;14.80;99.90;;;;;;4951585;29;20031;-88
2021/08/28 03:44:38;;;;;;;7.85;2.78;;;14.80;99.90;;;;;;4951438;29;20373;-88
2021/08/28 03:47:06;;;;;;;7.30;2.90;;;14.90;99.90;;;;;;4935458;29;20058;-90
2021/08/28 03:49:32;;;;;;;8.10;3.20;;;14.90;99.90;;;;;;4982753;28;20117;-87
2021/08/28 03:51:57;;;;;;;5.95;2.47;;;14.90;99.90;;;;;;4973948;28;20038;-88
2021/08/28 03:54:23;;;;;;;6.97;3.03;;;14.90;99.90;;;;;;4973675;28;20019;-88
2021/08/28 03:56:49;;;;;;;6.93;2.75;;;15.00;99.90;;;;;;4973687;28;20053;-88
2021/08/28 03:59:14;;;;;;;7.63;2.97;;;15.00;99.90;;;;;;4989738;28;20038;-89
2021/08/28 04:01:41;;;;;;;6.65;2.80;;;15.00;99.90;;;;;;4973538;28;20026;-88
2021/08/28 04:04:11;;;;;;;6.25;2.65;;;15.00;99.90;;;;;;4974348;28;20026;-88
2021/08/28 04:06:37;;;;;;;8.25;3.40;;;15.00;99.90;;;;;;4973399;28;20169;-89
2021/08/28 04:09:02;;;;;;;7.00;3.75;;;15.00;99.90;;;;;;4989746;28;20030;-89
2021/08/28 04:11:28;;;;;;;5.15;2.80;;;15.00;99.90;;;;;;4973217;28;20120;-88
2021/08/28 04:13:54;;;;;;;7.47;3.35;;;15.00;99.90;;;;;;4973531;28;20038;-88
2021/08/28 04:16:20;;;;;;;9.38;2.88;;;15.00;99.90;;;;;;4973140;28;20070;-88
2021/08/28 04:18:51;;;;;;;9.68;3.13;;;15.10;99.90;;;;;;4970229;28;20033;-89
2021/08/28 04:21:40;;;;;;;7.78;2.97;;;15.10;99.90;;;;;;4969768;28;20504;-88
2021/08/28 04:24:10;;;;;;;9.10;4.57;;;15.10;99.90;;;;;;4954994;28;20506;-89
2021/08/28 04:27:17;;;;;;;7.75;3.75;;;15.10;99.90;;;;;;4955871;28;20066;-89
2021/08/28 04:29:43;;;;;;;10.30;3.10;;;15.10;99.90;;;;;;4969966;28;20062;-90
2021/08/28 04:32:09;;;;;;;7.07;4.15;;;15.10;99.90;;;;;;4953118;28;20041;-89
2021/08/28 04:34:35;;;;;;;10.73;4.03;;;15.10;99.90;;;;;;4954091;28;20055;-90
2021/08/28 04:37:00;;;;;;;6.35;2.60;;;15.00;99.90;;;;;;4969904;28;20042;-90
2021/08/28 04:39:26;;;;;;;6.57;2.92;;;15.00;99.90;;;;;;4970022;28;20034;-90
2021/08/28 04:41:55;;;;;;;6.68;3.03;;;14.90;99.90;;;;;;4969810;28;20019;-90
2021/08/28 04:44:21;;;;;;;6.15;3.33;;;14.90;99.90;;;;;;4969949;28;20095;-90
2021/08/28 04:46:48;;;;;;;5.50;3.35;;;14.90;99.90;;;;;;4953817;28;20130;-90
2021/08/28 04:49:16;;;;;;;7.57;2.80;;;14.90;99.90;;;;;;4969402;28;20055;-89
2021/08/28 04:51:54;;;;;;;8.85;2.83;;;14.90;99.90;;;;;;4955612;28;20042;-89
2021/08/28 04:54:21;;;;;;;3.80;2.70;;;14.80;99.90;;;;;;4953990;28;20095;-89
2021/08/28 04:56:50;;;;;;;5.67;2.87;;;14.90;99.90;;;;;;4969346;28;20107;-88
2021/08/28 04:59:16;;;;;;;5.25;1.95;;;14.90;99.90;;;;;;4953677;28;20027;-90
2021/08/28 05:01:47;;;;;;;6.53;2.60;;;14.90;99.90;;;;;;4970511;28;20039;-90
2021/08/28 05:04:24;;;;;;;8.23;3.20;;;14.90;99.90;;;;;;4955331;28;20027;-90
2021/08/28 05:06:50;;;;;;;5.05;2.67;;;14.90;99.90;;;;;;4953748;28;20035;-90
2021/08/28 05:09:21;;;;;;;7.93;2.58;;;14.90;99.90;;;;;;4953788;28;20031;-89
2021/08/28 05:11:47;;;;;;;6.90;2.45;;;14.90;99.90;;;;;;4952911;28;20046;-89
2021/08/28 05:14:14;;;;;;;6.38;2.95;;;14.90;99.90;;;;;;4953008;28;20027;-89
2021/08/28 05:16:41;;;;;;;9.02;2.92;;;15.00;99.90;;;;;;4953219;28;20042;-89
2021/08/28 05:19:21;;;;;;;;;;;15.00;99.90;;;;;;4955038;28;20042;-90
2021/08/28 05:21:48;;;;;;;7.45;3.33;;;15.00;99.90;;;;;;4952910;28;19910;-89
2021/08/28 05:24:25;;;;;;;5.97;3.03;;;15.00;99.90;;;;;;4968867;28;20027;-91
2021/08/28 05:26:53;;;;;;;6.22;2.78;;;15.00;99.90;;;;;;4968603;28;20031;-90
2021/08/28 05:29:18;;;;;;;7.70;3.40;;;15.00;99.90;;;;;;4968730;28;20051;-90
2021/08/28 05:31:44;;;;;;;10.13;3.17;;;15.10;99.90;;;;;;4952717;28;20035;-91
2021/08/28 05:34:13;;;;;;;8.75;2.72;;;15.10;99.90;;;;;;4968797;28;20027;-90
2021/08/28 05:37:12;;;;;;;7.32;2.60;;;15.10;99.90;;;;;;4968645;28;20058;-90
2021/08/28 05:39:56;;;;;;;6.53;2.17;;;15.10;99.90;;;;;;4971613;28;20099;-88
2021/08/28 05:42:25;;;;;;;5.20;2.70;;;15.10;99.90;;;;;;4968580;28;20033;-89
2021/08/28 05:44:51;;;;;;;5.30;1.98;;;15.20;99.90;;;;;;4955557;28;20027;-89
2021/08/28 05:47:16;;;;;;;6.93;2.50;;;15.20;99.90;;;;;;4971850;28;20019;-88
2021/08/28 05:49:43;;;;;;;5.32;2.50;;;15.20;99.90;;;;;;4972126;28;20039;-88
2021/08/28 05:52:15;;;;;;;9.65;2.78;;;15.20;99.90;;;;;;4956848;28;20379;-87
2021/08/28 05:54:40;;;;;;;7.70;2.33;;;15.20;99.90;;;;;;4972092;28;20085;-89
2021/08/28 05:57:06;;;;;;;8.18;2.17;;;15.30;99.90;;;;;;4955942;28;20045;-89
2021/08/28 05:59:32;;;;;;;6.88;3.53;;;15.30;99.90;;;;;;4971942;28;20058;-88
2021/08/28 06:02:01;;;;;;;7.80;3.00;;;15.40;99.90;;;;;;4956394;28;20546;-88
2021/08/28 06:04:28;;;;;;;7.35;2.33;;;15.40;99.90;;;;;;4956180;28;20094;-88
2021/08/28 06:07:16;;;;;;;5.43;2.13;;;15.40;99.90;;;;;;4974793;28;20066;-87
2021/08/28 06:10:03;;;;;;;9.90;2.53;;;15.40;99.90;;;;;;4974611;28;20035;-88
2021/08/28 06:13:04;;;;;;;8.75;2.60;;;15.40;99.90;;;;;;4976316;28;20037;-88
2021/08/28 06:15:36;;;;;;;6.22;2.72;;;15.40;99.90;;;;;;4956531;28;20051;-87
2021/08/28 06:18:10;;;;;;;7.65;2.55;;;15.50;99.90;;;;;;4968110;29;20039;-88
2021/08/28 06:20:35;;;;;;;8.75;2.58;;;15.50;99.90;;;;;;4952190;29;20094;-88
2021/08/28 06:23:03;;;;;;;6.93;2.40;;;15.50;99.90;;;;;;4936652;29;20034;-88
2021/08/28 06:25:43;;;;;;;6.15;2.67;;;15.50;99.90;;;;;;4939182;29;20079;-88
2021/08/28 06:28:09;;;;;;;6.97;2.40;;;15.40;99.90;;;;;;4937035;29;20464;-87
2021/08/28 06:30:40;;;;;;;5.80;1.75;;;15.40;99.90;;;;;;4937169;29;20031;-88
2021/08/28 06:33:06;;;;;;;9.75;2.50;;;15.50;99.90;;;;;;4968918;29;20111;-88
2021/08/28 06:35:31;;;;;;;6.78;2.55;;;15.50;99.90;;;;;;4936212;29;20031;-88
2021/08/28 06:38:02;;;;;;;6.55;2.15;;;15.50;99.90;;;;;;4936550;29;20126;-88
2021/08/28 06:40:48;;;;;;;4.50;1.58;;;15.50;99.90;;;;;;4916354;29;20060;-88
2021/08/28 06:43:39;;;;;;;6.18;2.10;;;15.60;99.90;;;;;;4955450;29;20069;-88
2021/08/28 06:46:44;;;;;;;3.67;1.70;;;15.50;99.90;;;;;;4968759;29;20046;-88
2021/08/28 06:49:28;;;;;;;7.00;1.85;;;15.60;99.90;;;;;;4911158;29;20082;-89
2021/08/28 06:52:13;;;;;;;7.20;2.72;;;15.60;99.90;;;;;;4928414;29;20060;-89
2021/08/28 06:55:08;;;;;;;6.10;2.20;;;15.60;99.90;;;;;;4915549;29;20653;-88
2021/08/28 06:57:52;;;;;;;4.43;1.90;;;15.60;99.90;;;;;;4928555;29;20151;-88
2021/08/28 07:00:25;;;;;;;5.32;2.15;;;15.70;99.90;;;;;;4919051;29;20132;-88
2021/08/28 07:03:09;;;;;;;4.53;1.77;;;15.70;99.90;;;;;;4890071;29;20049;-88
2021/08/28 07:05:46;;;;;;;4.90;1.63;;;15.80;99.90;;;;;;4871807;29;20041;-88
2021/08/28 07:08:22;;;;;;;5.55;2.33;;;15.80;99.90;;;;;;4868684;29;20029;-88
2021/08/28 07:10:47;;;;;;;5.43;1.58;;;15.90;99.90;;;;;;4875020;29;20051;-88
2021/08/28 07:13:13;;;;;;;8.02;2.50;;;15.90;99.90;;;;;;4875125;29;20049;-90
2021/08/28 07:15:39;;;;;;;6.03;2.03;;;15.90;99.90;;;;;;4913685;23;20059;-88
2021/08/28 07:18:13;;;;;;;4.88;2.65;;;16.00;99.90;;;;;;4947754;29;20048;-92
2021/08/28 07:20:39;;;;;;;4.75;2.53;;;16.00;99.90;;;;;;4964036;28;20038;-88
2021/08/28 07:23:06;;;;;;;6.38;2.55;;;16.20;99.90;;;;;;4948080;29;20059;-90
2021/08/28 07:25:50;;;;;;;6.70;3.00;;;16.30;99.90;;;;;;4955218;29;20173;-88
2021/08/28 07:28:16;;;;;;;10.05;3.38;;;16.40;99.90;;;;;;4948355;29;20028;-90
2021/08/28 07:31:02;;;;;;;7.07;2.90;;;16.40;99.90;;;;;;4967409;29;20070;-90
2021/08/28 07:33:28;;;;;;;7.45;2.97;;;16.40;99.90;;;;;;4951305;29;20031;-88
2021/08/28 07:35:54;;;;;;;9.32;3.63;;;16.40;99.90;;;;;;4965654;29;20030;-87
2021/08/28 07:38:23;;;;;;;5.35;3.08;;;16.50;99.90;;;;;;4967000;28;20043;-88
2021/08/28 07:40:50;;;;;;;;;;;16.50;99.90;;;;;;4951274;29;20030;-89
2021/08/28 07:43:16;;;;;;;5.57;2.63;;;16.70;99.90;;;;;;4951099;29;20001;-89
2021/08/28 07:45:47;;;;;;;5.35;2.58;;;16.80;99.90;;;;;;4941341;29;20027;-88
2021/08/28 07:48:17;;;;;;;6.28;2.72;;;16.80;99.90;;;;;;4954607;28;20041;-88
2021/08/28 07:50:43;;;;;;;9.77;3.25;;;16.80;99.90;;;;;;4969817;28;20125;-88
2021/08/28 07:53:09;;;;;;;6.72;2.88;;;16.90;99.90;;;;;;4969766;28;20035;-88
2021/08/28 07:55:40;;;;;;;6.80;1.90;;;16.90;99.90;;;;;;4970479;28;20049;-88
2021/08/28 07:58:06;;;;;;;9.95;2.83;;;17.00;99.90;;;;;;4965338;29;20107;-87
2021/08/28 08:00:31;;;;;;;7.40;2.67;;;16.90;99.90;;;;;;4950621;29;20038;-88
2021/08/28 08:02:57;;;;;;;6.55;3.20;;;17.00;99.90;;;;;;4950382;29;20045;-88
2021/08/28 08:05:43;;;;;;;6.93;2.58;;;17.10;99.90;;;;;;4966561;28;20031;-88
2021/08/28 08:08:45;;;;;;;7.85;3.13;;;17.00;99.90;;;;;;4966560;28;20554;-87
2021/08/28 08:11:48;;;;;;;7.15;2.47;;;17.00;99.90;;;;;;4965890;28;20069;-88
2021/08/28 08:14:16;;;;;;;7.65;2.55;;;17.10;99.90;;;;;;4966389;28;20102;-89
2021/08/28 08:17:18;;;;;;;6.93;2.97;;;17.10;99.90;;;;;;4965396;29;20054;-87
2021/08/28 08:20:04;;;;;;;7.95;2.97;;;17.10;99.90;;;;;;4966333;29;20038;-89
2021/08/28 08:22:48;;;;;;;6.10;2.42;;;17.10;99.90;;;;;;4968384;29;20046;-89
2021/08/28 08:25:38;;;;;;;6.28;2.47;;;17.50;99.90;;;;;;4966565;28;20099;-90
2021/08/28 08:28:24;;;;;;;5.50;2.50;;;17.60;99.90;;;;;;4936923;29;20031;-88
2021/08/28 08:31:10;;;;;;;7.00;2.45;;;17.60;99.90;;;;;;4965668;29;20043;-88
2021/08/28 08:33:36;;;;;;;10.27;2.75;;;17.70;99.90;;;;;;4949890;29;20046;-88
2021/08/28 08:36:05;;;;;;;6.10;2.33;;;17.80;99.90;;;;;;4950435;29;20031;-87
2021/08/28 08:38:31;;;;;;;7.63;2.22;;;18.00;99.90;;;;;;4949859;29;20142;-89
2021/08/28 08:40:58;;;;;;;6.53;2.33;;;18.10;99.90;;;;;;4965855;28;20034;-88
2021/08/28 08:43:25;;;;;;;6.20;2.03;;;18.10;99.90;;;;;;4949883;29;20388;-88
2021/08/28 08:45:51;;;;;;;9.40;2.83;;;18.10;99.90;;;;;;4949666;29;20035;-87
2021/08/28 08:48:17;;;;;;;6.35;2.42;;;18.30;99.90;;;;;;4939795;28;20066;-87
2021/08/28 08:50:45;;;;;;;6.88;2.58;;;18.10;99.90;;;;;;4968836;28;20027;-86
2021/08/28 08:53:17;;;;;;;4.93;2.78;;;18.00;99.90;;;;;;4969566;28;20039;-87
2021/08/28 08:55:49;;;;;;;6.75;2.38;;;18.10;99.90;;;;;;4969411;28;20037;-86
2021/08/28 08:58:16;;;;;;;5.68;2.25;;;18.00;99.90;;;;;;4968833;28;20089;-87
2021/08/28 09:00:48;;;;;;;7.32;3.30;;;18.00;99.90;;;;;;4969538;28;20120;-86
2021/08/28 09:03:26;;;;;;;4.95;2.40;;;18.30;99.90;;;;;;4986499;28;20038;-87
2021/08/28 09:05:56;;;;;;;7.60;2.47;;;18.60;99.90;;;;;;4969495;28;20029;-88
2021/08/28 09:08:25;;;;;;;5.07;1.98;;;19.00;99.90;;;;;;4969328;28;20027;-87
2021/08/28 09:10:51;;;;;;;4.30;1.70;;;18.80;99.90;;;;;;4968535;28;20438;-87
2021/08/28 09:13:22;;;;;;;3.45;2.10;;;18.80;99.90;;;;;;4968580;28;20102;-87
2021/08/28 09:15:57;;;;;;;6.43;2.58;;;18.90;99.90;;;;;;4971838;28;20055;-88
2021/08/28 09:18:24;;;;;;;6.40;2.58;;;18.50;99.90;;;;;;4952846;29;20074;-88
2021/08/28 09:20:50;;;;;;;6.97;2.15;;;18.50;99.90;;;;;;4970367;28;20039;-88
2021/08/28 09:23:18;;;;;;;8.68;3.05;;;18.50;99.90;;;;;;4937168;29;20066;-86
2021/08/28 09:25:48;;;;;;;5.93;2.28;;;18.30;99.90;;;;;;4952850;29;20484;-86
2021/08/28 09:28:15;;;;;;;4.53;1.80;;;18.30;99.90;;;;;;4953100;29;20252;-87
2021/08/28 09:30:45;;;;;;;7.30;2.40;;;18.50;99.90;;;;;;4970078;28;20035;-87
2021/08/28 09:33:14;;;;;;;5.35;2.60;;;18.50;99.90;;;;;;4952834;29;20039;-88
2021/08/28 09:35:46;;;;;;;5.00;2.25;;;18.60;99.90;;;;;;4952860;29;20294;-88
2021/08/28 09:38:22;;;;;;;8.60;2.45;;;18.40;99.90;;;;;;4952946;29;20404;-89
2021/08/28 09:44:40;;;;;;;4.53;2.00;;;18.20;99.90;;;;;;4989433;28;20111;-88
2021/08/28 09:47:22;;;;;;;4.93;2.35;;;18.40;99.90;;;;;;4971916;28;20033;-87
2021/08/28 09:49:49;;;;;;;3.08;1.38;;;18.40;99.90;;;;;;4989669;28;20034;-87
2021/08/28 09:52:21;;;;;;;6.18;1.70;;;18.40;99.90;;;;;;4991265;28;20066;-86
2021/08/28 09:54:47;;;;;;;4.97;1.77;;;18.30;99.90;;;;;;5008267;28;20038;-86
2021/08/28 09:57:14;;;;;;;5.50;2.03;;;18.50;99.90;;;;;;4975035;28;20050;-86
2021/08/28 09:59:41;;;;;;;4.65;1.60;;;19.00;99.90;;;;;;4974590;28;20064;-87
2021/08/28 10:02:10;;;;;;;4.55;1.98;;;19.20;99.90;;;;;;4974339;28;20201;-88
2021/08/28 10:04:53;;;;;;;2.60;1.10;;;19.10;99.90;;;;;;4974872;28;20030;-90
2021/08/28 10:07:30;;;;;;;5.00;1.63;;;19.40;99.90;;;;;;4974415;28;20043;-87
2021/08/28 10:09:58;;;;;;;3.80;1.38;;;19.00;99.90;;;;;;4974567;28;20027;-87
2021/08/28 10:12:25;;;;;;;3.35;1.83;;;19.40;99.90;;;;;;4990459;28;20105;-87
2021/08/28 10:14:54;;;;;;;4.00;1.70;;;19.90;99.90;;;;;;4974654;28;20034;-87
2021/08/28 10:17:21;;;;;;;4.82;1.85;;;20.30;99.90;;;;;;4959447;29;20064;-86
2021/08/28 10:19:50;;;;;;;4.15;1.85;;;20.30;99.90;;;;;;4932837;29;20035;-86
2021/08/28 10:22:20;;;;;;;3.70;1.70;;;20.40;99.90;;;;;;4932944;29;20036;-87
2021/08/28 10:24:46;;;;;;;;;;;20.40;99.90;;;;;;4933798;29;20056;-88
2021/08/28 10:27:13;;;;;;;3.85;1.35;;;20.10;99.90;;;;;;4948854;29;19911;-89
2021/08/28 10:29:38;;;;;;;4.65;1.45;;;20.00;99.90;;;;;;4948010;29;20091;-88
2021/08/28 10:32:05;;;;;;;3.13;1.08;;;19.50;99.90;;;;;;4948497;29;20047;-86
2021/08/28 10:34:32;;;;;;;3.70;1.20;;;19.20;99.90;;;;;;4932747;29;20028;-87
2021/08/28 10:36:58;;;;;;;3.97;1.48;;;19.10;99.90;;;;;;4932496;29;20054;-87
2021/08/28 10:39:25;;;;;;;4.10;1.23;;;19.10;99.90;;;;;;4932782;29;20050;-85
2021/08/28 10:41:51;;;;;;;3.13;1.20;;;19.20;99.90;;;;;;4951011;29;20050;-88
2021/08/28 10:44:17;;;;;;;4.03;1.27;;;19.40;99.90;;;;;;4964942;29;20032;-87
2021/08/28 10:46:44;;;;;;;3.17;1.33;;;19.20;99.90;;;;;;4967478;29;20042;-85
2021/08/28 10:49:22;;;;;;;5.13;0.90;;;19.60;99.90;;;;;;4970275;28;20039;-86
2021/08/28 10:51:56;;;;;;;7.03;1.35;;;20.00;99.90;;;;;;4948358;29;20027;-87
2021/08/28 10:54:58;;;;;;;2.08;0.80;;;19.90;99.90;;;;;;4948730;29;20053;-87
2021/08/28 10:57:26;;;;;;;3.15;1.10;;;19.70;99.90;;;;;;4953467;29;20046;-87
2021/08/28 11:00:08;;;;;;;4.07;1.25;;;19.50;99.90;;;;;;4964751;29;20106;-87
2021/08/28 11:02:52;;;;;;;4.25;1.20;;;19.20;99.90;;;;;;4951482;29;20115;-88
2021/08/28 11:05:20;;;;;;;2.97;1.02;;;19.10;99.90;;;;;;4967527;29;20042;-88
2021/08/28 11:07:46;;;;;;;5.20;1.67;;;19.00;99.90;;;;;;4951179;29;20030;-87
2021/08/28 11:10:27;;;;;;;3.22;1.05;;;18.80;99.90;;;;;;4950427;29;20046;-86
2021/08/28 11:13:02;;;;;;;2.63;0.70;;;18.90;99.90;;;;;;4966768;29;20538;-87
2021/08/28 11:15:27;;;;;;;4.35;1.05;;;19.10;99.90;;;;;;4969676;28;20166;-87
2021/08/28 11:17:54;;;;;;;6.47;0.80;;;19.00;99.90;;;;;;4954187;28;20043;-86
2021/08/28 11:20:40;;;;;;;3.30;0.88;;;18.90;99.90;;;;;;4970228;28;20045;-87
2021/08/28 11:23:10;;;;;;;1.92;0.70;;;18.80;99.90;;;;;;4986549;28;20026;-87
2021/08/28 11:25:39;;;;;;;3.45;1.00;;;18.70;99.90;;;;;;4970151;28;20039;-87
2021/08/28 11:28:05;;;;;;;2.47;1.00;;;18.70;99.90;;;;;;4986345;28;20023;-86
2021/08/28 11:30:46;;;;;;;2.95;0.80;;;18.90;99.90;;;;;;4986378;28;20035;-86
2021/08/28 11:33:18;;;;;;;2.97;0.88;;;19.10;99.90;;;;;;4970442;28;20034;-87
2021/08/28 11:35:49;;;;;;;2.67;0.93;;;19.10;99.90;;;;;;4970165;28;20038;-87
2021/08/28 11:38:23;;;;;;;7.22;1.00;;;19.20;99.90;;;;;;4954103;28;20098;-87
2021/08/28 11:41:04;;;;;;;3.47;0.85;;;19.30;99.90;;;;;;4969584;28;20030;-86
2021/08/28 11:43:40;;;;;;;3.75;0.93;;;19.70;99.90;;;;;;4969973;28;20039;-86
2021/08/28 11:46:15;;;;;;;3.13;0.70;;;19.70;99.90;;;;;;4970115;28;20034;-87
2021/08/28 11:48:44;;;;;;;2.58;0.70;;;19.70;99.90;;;;;;4987088;28;20045;-88
2021/08/28 11:51:21;;;;;;;5.45;1.17;;;19.60;99.90;;;;;;4969288;28;20039;-87
2021/08/28 11:54:00;;;;;;;4.07;0.93;;;19.40;99.90;;;;;;4969807;28;20038;-88
2021/08/28 11:56:30;;;;;;;4.00;1.15;;;19.30;99.90;;;;;;4987057;28;20035;-86
2021/08/28 11:59:02;;;;;;;2.95;0.90;;;19.40;99.90;;;;;;4953793;28;20035;-87
2021/08/28 12:01:42;;;;;;;2.33;0.70;;;19.30;99.90;;;;;;4969485;28;20073;-87
2021/08/28 12:04:12;;;;;;;2.58;0.70;;;19.40;99.90;;;;;;4986778;28;20038;-85
2021/08/28 12:06:40;;;;;;;3.25;0.88;;;19.90;99.90;;;;;;4969284;28;20041;-86
2021/08/28 12:09:08;;;;;;;4.00;0.85;;;19.90;99.90;;;;;;4969549;28;20038;-86
2021/08/28 12:11:43;;;;;;;3.45;0.80;;;19.80;99.90;;;;;;4986742;28;20475;-86
2021/08/28 12:14:10;;;;;;;3.88;1.10;;;19.40;99.90;;;;;;4953199;28;20042;-86
2021/08/28 12:16:37;;;;;;;2.63;0.60;;;19.40;99.90;;;;;;4979882;28;20055;-86
2021/08/28 12:19:10;;;;;;;1.58;0.50;;;19.30;99.90;;;;;;4946762;29;20036;-86
2021/08/28 12:21:40;;;;;;;2.22;0.60;;;19.40;99.90;;;;;;4946950;29;20055;-87
2021/08/28 12:24:17;;;;;;;;;;;19.30;99.90;;;;;;4948607;29;20028;-87
2021/08/28 12:26:50;;;;;;;2.05;0.63;;;19.30;99.90;;;;;;4946903;29;19911;-87
2021/08/28 12:29:26;;;;;;;2.78;0.50;;;19.30;99.90;;;;;;4947298;29;20051;-86
2021/08/28 12:32:01;;;;;;;1.75;0.45;;;19.20;99.90;;;;;;4946860;29;20064;-87
2021/08/28 12:34:31;;;;;;;4.20;0.80;;;19.00;99.90;;;;;;4931331;29;20053;-88
2021/08/28 12:37:03;;;;;;;2.40;1.00;;;18.80;99.90;;;;;;4931102;29;20138;-88
2021/08/28 12:39:29;;;;;;;3.17;0.60;;;19.00;99.90;;;;;;4930999;29;20491;-87
2021/08/28 12:41:56;;;;;;;3.92;0.60;;;19.00;99.90;;;;;;4930913;29;20047;-87
2021/08/28 12:44:22;;;;;;;2.35;0.70;;;19.20;99.90;;;;;;4930961;29;20032;-86
2021/08/28 12:46:50;;;;;;;4.28;0.70;;;19.60;99.90;;;;;;4946549;29;20070;-86
2021/08/28 12:49:25;;;;;;;2.50;0.90;;;19.50;99.90;;;;;;4957777;28;20463;-85
2021/08/28 12:52:00;;;;;;;1.83;0.43;;;19.70;99.90;;;;;;4985080;28;20030;-89
2021/08/28 12:54:29;;;;;;;2.95;0.60;;;20.10;99.90;;;;;;4987807;28;20031;-88
2021/08/28 12:57:11;;;;;;;5.65;0.80;;;20.00;99.90;;;;;;4973061;28;20059;-85
2021/08/28 12:59:43;;;;;;;2.92;0.60;;;20.40;99.90;;;;;;4973110;28;20038;-86
2021/08/28 13:02:30;;;;;;;1.85;0.50;;;20.20;99.90;;;;;;4989102;28;20045;-88
2021/08/28 13:04:57;;;;;;;1.65;0.57;;;19.90;99.90;;;;;;4989074;28;20031;-86
2021/08/28 13:07:28;;;;;;;2.47;0.60;;;19.60;99.90;;;;;;4972718;28;20058;-87
2021/08/28 13:09:54;;;;;;;1.50;0.57;;;19.50;99.90;;;;;;4972716;28;20575;-87
2021/08/28 13:12:41;;;;;;;2.42;0.50;;;19.50;99.90;;;;;;4972946;28;20035;-89
2021/08/28 13:15:26;;;;;;;5.15;0.40;;;19.50;99.90;;;;;;4972838;28;20035;-89